Список аэропортов
Фактическая погода:

26 июня, 23:00
Температура: +24°C (+24.0*)
Ветер: сев.-восточный 5 м/с
Давление: *761 мм
Без существ. явл.
Время (МСК)Темп. СВетерВлажностьДавлениеОблачностьОсадки
21:00+25СЗ, 5 м/с52%1016 гПаясно
22:00+24СЗ, 4 м/с59%1015 гПаясно
23:00+23СЗ, 4 м/с66%1015 гПаясно
27 июня
00:00+23С, 4 м/с72%1015 гПаясно
01:00+22С, 3 м/с77%1015 гПаясно
02:00+21С, 3 м/с80%1015 гПаясно
03:00+21С, 3 м/с82%1014 гПаясно
04:00+20С, 4 м/с80%1014 гПаясно
05:00+20С, 4 м/с72%1014 гПаясно
06:00+20С, 4 м/с65%1014 гПаясно
07:00+22СВ, 4 м/с53%1013 гПаясно
08:00+24С, 4 м/с48%1013 гПаясно
09:00+26С, 3 м/с45%1013 гПаясно
10:00+28С, 3 м/с42%1013 гПаясно
11:00+29С, 3 м/с41%1012 гПаясно
12:00+30СЗ, 3 м/с39%1012 гПаясно
13:00+31СЗ, 4 м/с35%1011 гПаясно
14:00+31СЗ, 4 м/с33%1011 гПаясно
15:00+30СЗ, 5 м/с34%1010 гПаясно
16:00+30СЗ, 4 м/с34%1010 гПаясно
17:00+29СЗ, 4 м/с36%1009 гПаясно
18:00+28СЗ, 4 м/с41%1008 гПаясно
19:00+27СЗ, 4 м/с46%1008 гПаясно
20:00+25СЗ, 3 м/с55%1008 гПаясно
21:00+22СЗ, 1 м/с69%1008 гПаясно
22:00+21З, 1 м/с78%1008 гПаясно
23:00+20ЮЗ, 2 м/с83%1007 гПаясно
28 июня
00:00+20З, 2 м/с85%1006 гПаясно
01:00+19З, 2 м/с87%1006 гПаясно
02:00+19ЮЗ, 2 м/с88%1006 гПаясно
03:00+18Ю, 2 м/с90%1005 гПаясно
04:00+18Ю, 2 м/с92%1004 гПаясно
05:00+18ЮВ, 2 м/с92%1005 гПаясно
06:00+19ЮВ, 2 м/с90%1004 гПаясно
07:00+22ЮВ, 1 м/с84%1004 гПаясно
08:00+25Ю, 3 м/с66%1003 гПамалооблачно
09:00+27Ю, 6 м/с54%1003 гПамалооблачно
10:00+27Ю, 6 м/с53%1003 гПаоблачно
11:00+27Ю, 6 м/с56%1003 гПаоблачно
12:00+27ЮЗ, 6 м/с61%1003 гПаоблачно
13:00+28ЮЗ, 5 м/с56%1002 гПаоблачносл. дождь
14:00+26З, 5 м/с66%1002 гПаоблачно
15:00+25СЗ, 5 м/с66%1002 гПаоблачно
16:00+24С, 4 м/с61%1002 гПаоблачно
17:00+25СЗ, 4 м/с62%1003 гПас прояснениями
18:00+25СЗ, 6 м/с52%1003 гПаоблачно
19:00+25СЗ, 6 м/с51%1003 гПаоблачно
20:00+24СЗ, 5 м/с53%1004 гПас прояснениями
21:00+22СЗ, 3 м/с58%1004 гПас прояснениями